Time;durP1;ratioP1;P1;durP2;ratioP2;P2;SDS_P1;SDS_P2;PMS_P1;PMS_P2;Temp;Humidity;BMP_temperature;BMP_pressure;BME280_temperature;BME280_humidity;BME280_pressure;Samples;Min_cycle;Max_cycle;Signal;HPM_P1;HPM_P2
2023/08/14 00:01:04;;;;;;;6.32;3.30;;;22.20;66.70;;;;;;5062385;28;20028;-82
2023/08/14 00:03:31;;;;;;;8.63;3.47;;;22.10;66.70;;;;;;5059725;28;20518;-83
2023/08/14 00:05:58;;;;;;;7.90;3.20;;;22.10;67.10;;;;;;5044911;28;20044;-83
2023/08/14 00:08:25;;;;;;;7.37;3.57;;;22.10;66.90;;;;;;5054237;28;20409;-83
2023/08/14 00:10:53;;;;;;;6.75;3.50;;;22.00;66.90;;;;;;5058510;28;20036;-83
2023/08/14 00:13:21;;;;;;;7.60;3.30;;;22.00;67.10;;;;;;5058542;28;20041;-83
2023/08/14 00:15:49;;;;;;;7.72;3.22;;;22.00;67.40;;;;;;5064764;28;20103;-82
2023/08/14 00:18:16;;;;;;;6.97;3.35;;;22.00;67.20;;;;;;5053763;28;20454;-83
2023/08/14 00:20:44;;;;;;;7.83;3.40;;;22.00;67.10;;;;;;5059205;28;20049;-83
2023/08/14 00:23:12;;;;;;;9.32;3.60;;;22.00;67.20;;;;;;5065030;28;20047;-82
2023/08/14 00:25:39;;;;;;;8.07;3.33;;;22.00;67.10;;;;;;5058531;28;20770;-82
2023/08/14 00:28:06;;;;;;;6.80;3.45;;;21.90;67.10;;;;;;5069394;28;20384;-82
2023/08/14 00:30:33;;;;;;;8.77;3.50;;;21.90;67.30;;;;;;5054789;28;20037;-83
2023/08/14 00:33:00;;;;;;;7.40;3.07;;;21.90;67.20;;;;;;5063943;28;20045;-82
2023/08/14 00:35:28;;;;;;;7.55;3.40;;;21.90;67.30;;;;;;5063501;28;20052;-83
2023/08/14 00:37:55;;;;;;;7.60;3.63;;;21.90;67.30;;;;;;5043368;28;20098;-82
2023/08/14 00:40:22;;;;;;;6.40;3.30;;;21.90;67.10;;;;;;5047602;28;20049;-82
2023/08/14 00:42:49;;;;;;;7.88;3.33;;;21.90;67.20;;;;;;5047542;28;20128;-82
2023/08/14 00:45:16;;;;;;;7.23;3.20;;;21.80;67.30;;;;;;5048947;28;20055;-83
2023/08/14 00:47:46;;;;;;;7.10;3.28;;;21.80;67.50;;;;;;5063303;28;20051;-83
2023/08/14 00:50:14;;;;;;;9.75;3.70;;;21.90;67.40;;;;;;5064740;28;20037;-82
2023/08/14 00:52:44;;;;;;;6.80;3.38;;;21.80;67.50;;;;;;5065394;28;20039;-82
2023/08/14 00:55:19;;;;;;;6.47;3.35;;;21.80;67.70;;;;;;5045990;28;20090;-82
2023/08/14 00:57:46;;;;;;;7.33;3.30;;;21.70;67.90;;;;;;5063314;28;20075;-83
2023/08/14 01:00:14;;;;;;;8.05;3.63;;;21.70;67.80;;;;;;5045917;28;20034;-83
2023/08/14 01:02:42;;;;;;;6.97;3.50;;;21.70;68.10;;;;;;5062503;28;20037;-83
2023/08/14 01:05:10;;;;;;;7.15;3.50;;;21.70;67.90;;;;;;5052722;28;20132;-82
2023/08/14 01:07:37;;;;;;;6.43;3.53;;;21.70;67.90;;;;;;5063750;28;20559;-83
2023/08/14 01:10:07;;;;;;;7.10;3.43;;;21.60;67.90;;;;;;5063103;28;20055;-83
2023/08/14 01:12:52;;;;;;;7.45;3.45;;;21.70;67.80;;;;;;5047555;28;20048;-83
2023/08/14 01:15:33;;;;;;;8.73;3.60;;;21.60;67.90;;;;;;5051653;28;20055;-83
2023/08/14 01:18:03;;;;;;;7.13;3.20;;;21.60;67.40;;;;;;5064257;28;20087;-83
2023/08/14 01:20:37;;;;;;;6.97;3.50;;;21.60;67.40;;;;;;5059847;28;20124;-83
2023/08/14 01:23:19;;;;;;;8.73;3.60;;;21.70;67.50;;;;;;5052443;28;20122;-83
2023/08/14 01:25:48;;;;;;;8.95;3.78;;;21.70;67.20;;;;;;5061115;28;20049;-83
2023/08/14 01:28:16;;;;;;;8.93;3.92;;;21.70;67.50;;;;;;5061484;28;20040;-83
2023/08/14 01:30:43;;;;;;;10.13;4.32;;;21.70;67.90;;;;;;5049153;28;20388;-83
2023/08/14 01:33:10;;;;;;;9.55;3.92;;;21.60;68.10;;;;;;5045243;28;20051;-82
2023/08/14 01:36:06;;;;;;;10.07;4.90;;;21.60;68.50;;;;;;5068530;28;20033;-83
2023/08/14 01:38:48;;;;;;;8.68;4.55;;;21.60;68.80;;;;;;5061770;28;20054;-83
2023/08/14 01:41:41;;;;;;;12.05;4.43;;;21.50;68.50;;;;;;5059826;28;20045;-83
2023/08/14 01:44:14;;;;;;;8.80;4.32;;;21.50;68.20;;;;;;5072692;28;20044;-83
2023/08/14 01:46:43;;;;;;;6.75;3.83;;;21.50;68.60;;;;;;5064244;28;20051;-83
2023/08/14 01:49:14;;;;;;;8.73;4.00;;;21.40;68.40;;;;;;5064601;28;20041;-83
2023/08/14 01:51:42;;;;;;;7.60;3.58;;;21.50;68.20;;;;;;5056792;28;20049;-83
2023/08/14 01:54:10;;;;;;;7.45;3.55;;;21.50;68.00;;;;;;5064087;28;20048;-83
2023/08/14 01:56:37;;;;;;;8.07;3.67;;;21.50;68.20;;;;;;5062354;28;20064;-82
2023/08/14 01:59:04;;;;;;;7.88;3.97;;;21.40;68.20;;;;;;5063086;28;20037;-82
2023/08/14 02:04:34;;;;;;;8.55;4.10;;;21.40;68.10;;;;;;4715934;28;20408;-81
2023/08/14 02:07:02;;;;;;;9.05;4.13;;;21.30;68.40;;;;;;4956038;28;20043;-81
2023/08/14 02:09:29;;;;;;;8.35;4.43;;;21.30;68.50;;;;;;4953092;28;20429;-81
2023/08/14 02:11:56;;;;;;;10.23;3.50;;;21.30;68.60;;;;;;4952473;28;20051;-81
2023/08/14 02:14:23;;;;;;;7.50;3.83;;;21.30;68.60;;;;;;4954271;28;20046;-81
2023/08/14 02:16:50;;;;;;;10.77;3.92;;;21.30;68.40;;;;;;4955049;28;20043;-82
2023/08/14 02:19:17;;;;;;;9.48;3.88;;;21.20;68.50;;;;;;4946870;28;20532;-81
2023/08/14 02:21:44;;;;;;;9.13;3.63;;;21.20;68.70;;;;;;4954230;28;20053;-81
2023/08/14 02:24:11;;;;;;;9.02;3.92;;;21.20;68.90;;;;;;4965366;28;20073;-81
2023/08/14 02:26:38;;;;;;;7.83;3.60;;;21.10;68.80;;;;;;4964487;28;20118;-81
2023/08/14 02:29:06;;;;;;;7.90;3.65;;;21.10;69.00;;;;;;4955015;28;20043;-81
2023/08/14 02:31:35;;;;;;;8.20;3.65;;;21.10;69.00;;;;;;4972565;28;20050;-81
2023/08/14 02:34:02;;;;;;;7.68;3.67;;;21.10;69.20;;;;;;4965096;28;20047;-81
2023/08/14 02:36:29;;;;;;;9.57;4.07;;;21.10;69.20;;;;;;4964311;28;20057;-81
2023/08/14 02:38:56;;;;;;;8.10;3.83;;;21.00;69.40;;;;;;4953805;28;20070;-81
2023/08/14 02:41:23;;;;;;;9.35;4.00;;;21.00;69.60;;;;;;4946769;28;20039;-82
2023/08/14 02:43:50;;;;;;;10.18;4.00;;;20.90;69.80;;;;;;4946822;28;20419;-80
2023/08/14 02:46:17;;;;;;;8.20;4.00;;;20.90;69.80;;;;;;4949170;28;20070;-81
2023/08/14 02:48:45;;;;;;;7.93;3.90;;;20.80;69.80;;;;;;4949515;28;20075;-81
2023/08/14 02:51:12;;;;;;;7.87;3.93;;;20.80;69.90;;;;;;4956823;28;20725;-81
2023/08/14 02:53:39;;;;;;;9.45;4.15;;;20.80;69.90;;;;;;4955663;28;20483;-81
2023/08/14 02:56:06;;;;;;;7.35;3.92;;;20.80;70.00;;;;;;4951478;28;20078;-81
2023/08/14 02:58:35;;;;;;;7.82;4.03;;;20.70;70.10;;;;;;4964512;28;20374;-81
2023/08/14 03:01:04;;;;;;;8.48;3.80;;;20.80;70.00;;;;;;4952961;28;20404;-81
2023/08/14 03:03:31;;;;;;;8.33;3.77;;;20.80;70.20;;;;;;4964084;28;20043;-81
2023/08/14 03:05:59;;;;;;;8.48;4.07;;;20.70;70.20;;;;;;4951154;28;20048;-81
2023/08/14 03:08:26;;;;;;;8.95;4.20;;;20.70;70.20;;;;;;4955617;28;20488;-81
2023/08/14 03:10:53;;;;;;;8.45;3.90;;;20.60;70.20;;;;;;4962842;28;20055;-81
2023/08/14 03:13:20;;;;;;;8.27;3.75;;;20.60;70.50;;;;;;4969712;28;20062;-81
2023/08/14 03:15:47;;;;;;;8.93;3.97;;;20.60;70.60;;;;;;4954744;28;20057;-81
2023/08/14 03:18:14;;;;;;;10.13;4.30;;;20.60;70.90;;;;;;4952830;29;20043;-81
2023/08/14 03:20:41;;;;;;;7.80;4.35;;;20.50;71.10;;;;;;4953801;28;20397;-81
2023/08/14 03:23:08;;;;;;;8.98;4.40;;;20.50;71.30;;;;;;4962104;28;20042;-81
2023/08/14 03:25:35;;;;;;;10.60;4.35;;;20.40;71.40;;;;;;4951477;28;20059;-81
2023/08/14 03:28:02;;;;;;;8.97;4.60;;;20.30;71.60;;;;;;4950474;28;20042;-81
2023/08/14 03:30:30;;;;;;;7.63;4.28;;;20.40;71.60;;;;;;4952325;28;20043;-81
2023/08/14 03:32:57;;;;;;;8.77;4.35;;;20.30;71.70;;;;;;4954532;28;20035;-81
2023/08/14 03:35:25;;;;;;;11.68;4.57;;;20.30;71.60;;;;;;4955518;28;20058;-81
2023/08/14 03:37:52;;;;;;;9.20;4.55;;;20.30;72.00;;;;;;4952484;28;20043;-81
2023/08/14 03:40:19;;;;;;;8.03;4.97;;;20.30;72.10;;;;;;4964639;28;20070;-81
2023/08/14 03:42:46;;;;;;;9.02;4.78;;;20.20;72.10;;;;;;4968977;28;20445;-80
2023/08/14 03:45:13;;;;;;;9.25;4.60;;;20.10;72.40;;;;;;4953912;28;20043;-81
2023/08/14 03:47:40;;;;;;;9.52;4.68;;;20.10;72.50;;;;;;4955576;28;20038;-81
2023/08/14 03:50:08;;;;;;;10.02;5.00;;;20.10;72.70;;;;;;4969769;28;20046;-81
2023/08/14 03:52:35;;;;;;;10.30;4.57;;;20.00;72.70;;;;;;4959503;28;20034;-81
2023/08/14 03:55:02;;;;;;;8.85;4.70;;;20.00;72.80;;;;;;4968280;28;20436;-81
2023/08/14 03:57:29;;;;;;;8.60;4.50;;;20.00;72.60;;;;;;4956745;28;20039;-81
2023/08/14 03:59:56;;;;;;;10.77;4.80;;;20.10;72.70;;;;;;4959376;28;20042;-81
2023/08/14 04:02:23;;;;;;;7.40;4.10;;;20.00;72.40;;;;;;4975510;28;20031;-81
2023/08/14 04:04:50;;;;;;;7.77;4.20;;;20.00;72.40;;;;;;4954628;28;20050;-81
2023/08/14 04:07:17;;;;;;;8.43;4.53;;;20.10;72.10;;;;;;4972031;28;20030;-81
2023/08/14 04:09:44;;;;;;;8.73;4.05;;;20.10;72.30;;;;;;4959035;28;20054;-80
2023/08/14 04:12:11;;;;;;;7.82;4.28;;;20.00;72.10;;;;;;4958887;28;20039;-81
2023/08/14 04:14:38;;;;;;;8.50;3.72;;;20.00;72.20;;;;;;4958813;28;20050;-81
2023/08/14 04:17:05;;;;;;;7.80;3.93;;;20.10;72.10;;;;;;4965752;28;20038;-81
2023/08/14 04:19:32;;;;;;;8.35;4.18;;;20.10;72.20;;;;;;4974857;28;20492;-81
2023/08/14 04:21:59;;;;;;;10.25;4.07;;;20.10;72.10;;;;;;4956200;28;20035;-81
2023/08/14 04:24:27;;;;;;;7.75;3.90;;;20.10;72.10;;;;;;4956791;28;20046;-81
2023/08/14 04:26:53;;;;;;;10.43;4.20;;;20.10;72.00;;;;;;4951779;28;20097;-81
2023/08/14 04:29:20;;;;;;;7.57;3.90;;;20.10;72.20;;;;;;4957855;28;20082;-81
2023/08/14 04:31:48;;;;;;;8.18;4.25;;;20.10;72.10;;;;;;4957102;28;20038;-81
2023/08/14 04:34:16;;;;;;;7.22;3.83;;;20.10;71.70;;;;;;4956786;28;20039;-81
2023/08/14 04:36:46;;;;;;;7.80;3.97;;;20.20;71.70;;;;;;4959093;28;20397;-81
2023/08/14 04:39:14;;;;;;;7.13;3.85;;;20.20;71.70;;;;;;4969471;28;20469;-81
2023/08/14 04:41:41;;;;;;;8.73;4.27;;;20.20;71.70;;;;;;4973269;28;20057;-81
2023/08/14 04:44:08;;;;;;;8.13;3.85;;;20.40;71.50;;;;;;4957684;28;20129;-81
2023/08/14 04:46:38;;;;;;;9.30;3.97;;;20.40;71.30;;;;;;4959169;28;20452;-81
2023/08/14 04:49:24;;;;;;;8.75;3.95;;;20.50;71.10;;;;;;4958464;28;20070;-81
2023/08/14 04:51:51;;;;;;;7.45;3.80;;;20.50;70.70;;;;;;4955679;28;20515;-81
2023/08/14 04:54:18;;;;;;;8.13;4.10;;;20.50;70.70;;;;;;4971545;28;20051;-82
2023/08/14 04:56:45;;;;;;;8.35;3.97;;;20.60;70.60;;;;;;4953367;28;20039;-82
2023/08/14 04:59:12;;;;;;;7.25;3.80;;;20.60;70.50;;;;;;4962471;28;20128;-83
2023/08/14 05:01:39;;;;;;;9.43;3.58;;;20.60;70.60;;;;;;4955553;28;20097;-83
2023/08/14 05:04:06;;;;;;;8.38;3.80;;;20.70;70.70;;;;;;4957999;28;20047;-83
2023/08/14 05:06:34;;;;;;;8.73;4.10;;;20.70;70.40;;;;;;4971719;28;20070;-83
2023/08/14 05:09:02;;;;;;;6.97;3.50;;;20.80;70.00;;;;;;4954946;28;20040;-83
2023/08/14 05:11:49;;;;;;;7.53;3.65;;;20.90;69.80;;;;;;4951212;28;20071;-83
2023/08/14 05:14:18;;;;;;;10.57;3.53;;;21.00;69.60;;;;;;4955659;28;20054;-83
2023/08/14 05:16:46;;;;;;;10.52;4.18;;;21.10;69.80;;;;;;4956535;28;20051;-83
2023/08/14 05:19:13;;;;;;;7.80;3.30;;;21.10;69.50;;;;;;4958118;28;20504;-83
2023/08/14 05:21:40;;;;;;;7.22;3.40;;;21.30;68.80;;;;;;4951452;28;20055;-83
2023/08/14 05:24:08;;;;;;;8.00;3.63;;;21.40;68.80;;;;;;4947498;28;20098;-83
2023/08/14 05:26:35;;;;;;;7.63;3.28;;;21.50;68.40;;;;;;4968031;28;20043;-83
2023/08/14 05:29:02;;;;;;;6.80;3.50;;;21.60;68.00;;;;;;4957102;28;20065;-83
2023/08/14 05:31:29;;;;;;;6.90;3.73;;;21.70;67.90;;;;;;4955410;28;20051;-82
2023/08/14 05:33:56;;;;;;;6.47;3.20;;;21.80;68.00;;;;;;4968232;28;20504;-82
2023/08/14 05:36:23;;;;;;;7.38;3.63;;;21.90;67.90;;;;;;4955402;28;20475;-81
2023/08/14 05:38:50;;;;;;;9.93;3.85;;;21.90;67.80;;;;;;4956484;28;20046;-82
2023/08/14 05:41:18;;;;;;;9.63;3.83;;;21.80;67.50;;;;;;4950482;28;20065;-82
2023/08/14 05:43:45;;;;;;;6.80;3.37;;;21.90;67.50;;;;;;4955245;28;20047;-82
2023/08/14 05:46:12;;;;;;;6.97;3.35;;;22.00;66.90;;;;;;4956555;28;20519;-82
2023/08/14 05:48:39;;;;;;;7.88;3.15;;;22.10;66.60;;;;;;4959671;28;20049;-82
2023/08/14 05:51:07;;;;;;;7.03;3.17;;;22.20;66.50;;;;;;4950691;28;20047;-82
2023/08/14 05:53:34;;;;;;;9.57;3.88;;;22.30;66.20;;;;;;4954494;28;20126;-82
2023/08/14 05:56:00;;;;;;;7.73;3.23;;;22.50;66.40;;;;;;4948066;28;20047;-82
2023/08/14 05:58:27;;;;;;;7.88;3.42;;;22.50;66.30;;;;;;4939590;28;20054;-82
2023/08/14 06:00:54;;;;;;;7.57;3.78;;;22.60;65.70;;;;;;4950855;28;20042;-82
2023/08/14 06:03:21;;;;;;;8.07;3.25;;;22.60;66.30;;;;;;4957090;28;20050;-82
2023/08/14 06:06:08;;;;;;;7.45;3.30;;;22.80;65.50;;;;;;4954350;28;20043;-82
2023/08/14 06:08:35;;;;;;;7.13;3.20;;;23.00;65.70;;;;;;4956448;28;20396;-82
2023/08/14 06:11:03;;;;;;;6.85;3.22;;;23.10;65.30;;;;;;4970434;28;20082;-83
2023/08/14 06:13:31;;;;;;;9.02;3.03;;;23.30;63.80;;;;;;4955567;28;20043;-85
2023/08/14 06:15:58;;;;;;;8.30;3.00;;;23.40;64.20;;;;;;4962187;28;20137;-82
2023/08/14 06:18:25;;;;;;;7.88;2.55;;;23.50;63.50;;;;;;4955313;28;20042;-82
2023/08/14 06:20:53;;;;;;;9.37;3.33;;;23.70;63.00;;;;;;4955514;28;20042;-82
2023/08/14 06:23:20;;;;;;;6.82;2.97;;;23.90;62.80;;;;;;4949374;28;20043;-82
2023/08/14 06:25:47;;;;;;;7.28;2.88;;;24.10;63.10;;;;;;4950461;28;20047;-82
2023/08/14 06:28:14;;;;;;;6.45;2.60;;;24.30;61.70;;;;;;4956890;28;20039;-82
2023/08/14 06:30:41;;;;;;;6.10;2.78;;;24.40;60.80;;;;;;4963371;28;20420;-82
2023/08/14 06:33:08;;;;;;;6.77;2.87;;;24.50;60.00;;;;;;4971911;28;20035;-82
2023/08/14 06:35:35;;;;;;;7.43;2.70;;;24.60;59.90;;;;;;4954787;28;20113;-82
2023/08/14 06:38:02;;;;;;;7.78;2.70;;;24.80;59.10;;;;;;4954153;28;20043;-81
2023/08/14 06:40:29;;;;;;;6.72;2.50;;;24.90;58.70;;;;;;4951788;28;20382;-81
2023/08/14 06:42:56;;;;;;;6.43;2.75;;;24.90;58.70;;;;;;4944913;28;20443;-81
2023/08/14 06:45:23;;;;;;;9.97;2.60;;;24.80;57.90;;;;;;4958996;28;20043;-81
2023/08/14 06:53:09;;;;;;;7.25;2.40;;;25.00;57.70;;;;;;4848441;29;20140;-81
2023/08/14 06:55:36;;;;;;;7.03;2.75;;;25.20;58.20;;;;;;4872313;29;20047;-81
2023/08/14 06:58:06;;;;;;;6.20;2.17;;;25.40;57.30;;;;;;4909632;29;20044;-81
2023/08/14 07:00:35;;;;;;;6.80;2.60;;;25.50;58.60;;;;;;4891353;29;20053;-81
2023/08/14 07:03:02;;;;;;;6.00;2.25;;;25.60;56.30;;;;;;4893671;29;20622;-81
2023/08/14 07:05:29;;;;;;;4.93;2.22;;;25.60;56.40;;;;;;4904905;29;20098;-82
2023/08/14 07:07:57;;;;;;;5.20;2.17;;;25.80;55.00;;;;;;4904209;29;20056;-81
2023/08/14 07:10:24;;;;;;;5.82;2.45;;;25.80;54.70;;;;;;4901347;29;20063;-81
2023/08/14 07:12:51;;;;;;;6.57;2.43;;;25.90;55.10;;;;;;4898158;29;20049;-81
2023/08/14 07:15:18;;;;;;;5.40;2.47;;;26.00;55.80;;;;;;4903360;29;20458;-81
2023/08/14 07:17:45;;;;;;;5.72;2.30;;;26.10;56.00;;;;;;4910085;29;20052;-81
2023/08/14 07:20:12;;;;;;;5.90;2.28;;;26.10;55.10;;;;;;4892108;29;20055;-81
2023/08/14 07:22:39;;;;;;;6.85;2.85;;;26.30;56.10;;;;;;4913035;29;20059;-81
2023/08/14 07:25:07;;;;;;;7.07;2.40;;;26.40;54.40;;;;;;4870512;29;20490;-81
2023/08/14 07:27:34;;;;;;;6.32;2.40;;;26.50;54.60;;;;;;4897713;29;20040;-81
2023/08/14 07:30:01;;;;;;;6.18;2.60;;;26.50;55.00;;;;;;4959816;28;20051;-81
2023/08/14 07:32:28;;;;;;;5.90;2.40;;;26.60;56.10;;;;;;4948195;28;20496;-80
2023/08/14 07:34:55;;;;;;;6.07;2.70;;;26.60;53.90;;;;;;4955266;28;20047;-81
2023/08/14 07:37:22;;;;;;;5.23;2.20;;;26.60;53.60;;;;;;4951857;28;20058;-81
2023/08/14 07:39:49;;;;;;;6.47;2.60;;;26.60;54.40;;;;;;4954649;28;20069;-81
2023/08/14 07:42:16;;;;;;;8.38;2.50;;;26.70;54.10;;;;;;4953194;28;20058;-81
2023/08/14 07:44:44;;;;;;;6.68;2.38;;;26.70;54.00;;;;;;4966785;28;20464;-80
2023/08/14 07:47:12;;;;;;;5.93;2.60;;;26.80;55.20;;;;;;4954585;28;20043;-81
2023/08/14 07:49:39;;;;;;;7.73;2.70;;;26.80;53.20;;;;;;4954885;28;20134;-81
2023/08/14 07:52:06;;;;;;;51.00;4.30;;;26.90;54.40;;;;;;4953125;28;20050;-81
2023/08/14 07:54:33;;;;;;;6.65;2.95;;;26.90;54.60;;;;;;4960452;28;20119;-81
2023/08/14 07:57:01;;;;;;;5.22;2.47;;;27.00;54.60;;;;;;4961097;28;20042;-81
2023/08/14 07:59:28;;;;;;;8.57;2.78;;;27.10;53.90;;;;;;4961865;28;20093;-81
2023/08/14 08:01:55;;;;;;;6.23;2.60;;;27.10;54.10;;;;;;4964138;28;20043;-81
2023/08/14 08:04:22;;;;;;;6.18;2.35;;;27.20;53.40;;;;;;4951093;28;20047;-82
2023/08/14 08:06:52;;;;;;;7.18;2.60;;;27.20;53.00;;;;;;4949995;28;20045;-81
2023/08/14 08:09:19;;;;;;;5.60;2.50;;;27.20;53.00;;;;;;4950418;28;20090;-82
2023/08/14 08:11:46;;;;;;;6.28;2.45;;;27.20;53.70;;;;;;4953740;28;20078;-81
2023/08/14 08:14:18;;;;;;;6.50;2.40;;;27.30;54.40;;;;;;4952470;28;20130;-81
2023/08/14 08:16:45;;;;;;;5.20;2.58;;;27.40;53.50;;;;;;4960884;28;20137;-81
2023/08/14 08:19:12;;;;;;;7.95;2.72;;;27.50;53.60;;;;;;4947409;28;20524;-81
2023/08/14 08:21:39;;;;;;;5.95;2.42;;;27.60;53.90;;;;;;4968728;28;20043;-82
2023/08/14 08:24:07;;;;;;;6.07;2.40;;;27.70;52.60;;;;;;4949769;28;20050;-81
2023/08/14 08:26:36;;;;;;;8.27;2.53;;;27.70;52.70;;;;;;4971251;28;20046;-81
2023/08/14 08:29:05;;;;;;;7.20;2.58;;;27.90;53.20;;;;;;4946135;28;20057;-83
2023/08/14 08:31:32;;;;;;;5.70;2.30;;;28.00;52.80;;;;;;4970498;28;20031;-83
2023/08/14 08:33:59;;;;;;;6.28;2.20;;;28.00;51.70;;;;;;4946454;29;20062;-82
2023/08/14 08:36:26;;;;;;;12.80;3.08;;;28.10;52.20;;;;;;4968475;28;20039;-86
2023/08/14 08:38:53;;;;;;;5.40;2.30;;;28.20;52.70;;;;;;4967870;28;20404;-85
2023/08/14 08:41:22;;;;;;;6.40;2.60;;;28.10;51.50;;;;;;4959739;28;20051;-83
2023/08/14 08:44:03;;;;;;;5.55;2.47;;;28.20;51.60;;;;;;4956370;28;20038;-83
2023/08/14 08:46:37;;;;;;;5.10;2.15;;;28.30;51.50;;;;;;4956697;28;20035;-83
2023/08/14 08:49:05;;;;;;;10.43;3.25;;;28.40;50.90;;;;;;4967439;28;20579;-83
2023/08/14 08:51:33;;;;;;;6.10;2.20;;;28.50;52.30;;;;;;4948438;28;20525;-83
2023/08/14 08:54:01;;;;;;;7.28;2.40;;;28.60;50.70;;;;;;4957097;28;20098;-83
2023/08/14 08:56:29;;;;;;;5.22;2.30;;;28.60;51.20;;;;;;4952910;28;20048;-83
2023/08/14 08:58:56;;;;;;;6.10;2.53;;;28.60;50.10;;;;;;4953008;28;20058;-83
2023/08/14 09:01:23;;;;;;;6.60;2.88;;;28.60;50.80;;;;;;4946670;28;20039;-83
2023/08/14 09:03:50;;;;;;;6.33;2.30;;;28.80;50.40;;;;;;4962133;28;20055;-83
2023/08/14 09:06:18;;;;;;;5.20;2.30;;;28.80;50.10;;;;;;4954150;28;20049;-83
2023/08/14 09:08:45;;;;;;;7.78;2.70;;;29.00;50.90;;;;;;4958199;28;20057;-83
2023/08/14 09:11:12;;;;;;;5.60;2.40;;;29.10;49.80;;;;;;4944637;28;20039;-83
2023/08/14 09:13:39;;;;;;;37.95;3.90;;;29.10;48.70;;;;;;4964379;28;20078;-82
2023/08/14 09:16:07;;;;;;;7.33;2.37;;;29.20;50.70;;;;;;4973477;28;20043;-83
2023/08/14 09:18:34;;;;;;;5.88;2.50;;;29.20;49.70;;;;;;4950557;28;20049;-83
2023/08/14 09:21:02;;;;;;;6.35;2.38;;;29.30;49.50;;;;;;4957735;28;20484;-84
2023/08/14 09:23:31;;;;;;;6.47;2.38;;;29.30;49.00;;;;;;4951362;28;20133;-83
2023/08/14 09:25:59;;;;;;;6.20;2.47;;;29.30;50.10;;;;;;4969702;28;20701;-84
2023/08/14 09:28:27;;;;;;;6.63;2.27;;;29.40;49.60;;;;;;4966585;28;20038;-83
2023/08/14 09:31:07;;;;;;;7.63;2.40;;;29.40;47.80;;;;;;4956931;28;20054;-83
2023/08/14 09:33:37;;;;;;;5.40;2.05;;;29.40;48.30;;;;;;4955516;28;20097;-83
2023/08/14 09:36:04;;;;;;;6.10;2.50;;;29.50;47.40;;;;;;4951271;28;20059;-83
2023/08/14 09:38:31;;;;;;;5.15;2.10;;;29.60;48.90;;;;;;4964996;28;20047;-83
2023/08/14 09:40:59;;;;;;;6.10;2.10;;;29.60;47.00;;;;;;4964083;28;20043;-83
2023/08/14 09:43:28;;;;;;;6.00;2.58;;;29.70;47.40;;;;;;4955007;28;20054;-83
2023/08/14 09:45:57;;;;;;;5.03;2.38;;;29.60;47.20;;;;;;4952237;28;20062;-83
2023/08/14 09:48:40;;;;;;;5.45;2.10;;;29.70;48.60;;;;;;4953217;28;20039;-83
2023/08/14 09:51:15;;;;;;;5.35;2.10;;;29.80;47.80;;;;;;4955314;28;20404;-83
2023/08/14 09:54:07;;;;;;;6.67;2.60;;;29.90;49.40;;;;;;4956056;28;20055;-83
2023/08/14 09:56:34;;;;;;;5.57;2.30;;;29.90;49.60;;;;;;4952666;28;20046;-83
2023/08/14 09:59:02;;;;;;;8.05;2.30;;;30.00;48.90;;;;;;4969005;28;20046;-83
2023/08/14 10:01:29;;;;;;;8.40;2.85;;;30.00;46.90;;;;;;4952155;28;20382;-83
2023/08/14 10:03:58;;;;;;;6.68;2.47;;;30.00;47.70;;;;;;4976847;28;20046;-83
2023/08/14 10:06:25;;;;;;;6.27;2.40;;;30.00;46.90;;;;;;4952114;28;20045;-83
2023/08/14 10:08:57;;;;;;;6.00;2.53;;;30.10;47.80;;;;;;4949831;28;20035;-83
2023/08/14 10:11:28;;;;;;;5.00;2.22;;;30.10;49.20;;;;;;4963027;28;20516;-84
2023/08/14 10:14:00;;;;;;;7.15;2.20;;;30.10;47.30;;;;;;4947734;29;20156;-83
2023/08/14 10:16:34;;;;;;;6.75;2.17;;;30.20;47.40;;;;;;4956620;28;20137;-83
2023/08/14 10:19:04;;;;;;;6.23;2.30;;;30.20;46.30;;;;;;4967472;28;20043;-83
2023/08/14 10:21:34;;;;;;;5.28;2.30;;;30.30;46.00;;;;;;4957412;28;20081;-83
2023/08/14 10:24:03;;;;;;;6.82;2.30;;;30.40;47.00;;;;;;4967606;28;20035;-83
2023/08/14 10:26:33;;;;;;;5.25;2.20;;;30.50;46.30;;;;;;4974509;28;20039;-83
2023/08/14 10:29:02;;;;;;;6.10;2.25;;;30.40;45.50;;;;;;4965340;28;20038;-83
2023/08/14 10:31:30;;;;;;;5.90;2.20;;;30.30;44.40;;;;;;4949686;28;20039;-83
2023/08/14 10:33:59;;;;;;;7.18;2.33;;;30.20;45.50;;;;;;4955696;28;20054;-83
2023/08/14 10:36:28;;;;;;;6.10;2.50;;;30.30;46.90;;;;;;4964612;28;20047;-83
2023/08/14 10:39:04;;;;;;;6.05;2.60;;;30.50;48.00;;;;;;4948020;28;20134;-83
2023/08/14 10:41:35;;;;;;;6.03;2.40;;;30.60;46.30;;;;;;4948399;28;20532;-83
2023/08/14 10:44:07;;;;;;;7.30;2.53;;;30.60;44.80;;;;;;4966719;28;20038;-83
2023/08/14 10:46:44;;;;;;;4.40;2.00;;;30.70;47.70;;;;;;4964618;28;20446;-83
2023/08/14 10:49:12;;;;;;;7.15;2.47;;;30.80;45.60;;;;;;4967130;28;20400;-83
2023/08/14 10:51:42;;;;;;;6.65;2.42;;;30.90;45.80;;;;;;4951975;28;20074;-83
2023/08/14 10:54:11;;;;;;;7.55;2.53;;;30.80;45.30;;;;;;4968668;28;20062;-83
2023/08/14 10:56:43;;;;;;;6.10;2.60;;;30.90;46.20;;;;;;4950135;28;20421;-83
2023/08/14 10:59:26;;;;;;;4.38;2.20;;;31.10;45.80;;;;;;4965628;28;20085;-83
2023/08/14 11:02:09;;;;;;;5.07;2.30;;;31.10;43.60;;;;;;4940179;28;20106;-83
2023/08/14 11:04:59;;;;;;;6.65;2.58;;;31.00;46.40;;;;;;4962601;28;20071;-83
2023/08/14 11:07:30;;;;;;;5.38;2.30;;;30.90;45.40;;;;;;4947485;28;20039;-83
2023/08/14 11:09:58;;;;;;;11.90;3.73;;;30.90;43.60;;;;;;4953003;28;20133;-83
2023/08/14 11:12:29;;;;;;;6.38;2.78;;;31.00;45.30;;;;;;4954777;28;20468;-84
2023/08/14 11:14:57;;;;;;;6.55;2.35;;;31.00;45.50;;;;;;4970877;28;20047;-84
2023/08/14 11:17:27;;;;;;;6.13;2.40;;;31.10;44.00;;;;;;4968491;28;20093;-83
2023/08/14 11:19:55;;;;;;;6.63;2.22;;;31.10;43.70;;;;;;4944927;28;20461;-84
2023/08/14 11:22:23;;;;;;;5.37;2.40;;;31.30;45.10;;;;;;4945370;28;20058;-83
2023/08/14 11:24:50;;;;;;;7.10;2.63;;;31.30;43.90;;;;;;4954535;28;20055;-83
2023/08/14 11:27:17;;;;;;;6.95;2.78;;;31.30;42.90;;;;;;4953321;28;20038;-84
2023/08/14 11:29:48;;;;;;;6.72;2.72;;;31.20;45.00;;;;;;4951736;28;20393;-83
2023/08/14 11:32:20;;;;;;;6.55;2.58;;;31.40;44.10;;;;;;4967328;28;20046;-84
2023/08/14 11:34:49;;;;;;;7.10;2.90;;;31.50;43.60;;;;;;4947067;28;20069;-83
2023/08/14 11:37:17;;;;;;;6.60;2.60;;;31.50;44.00;;;;;;4950392;28;20130;-83
2023/08/14 11:39:44;;;;;;;5.90;2.55;;;31.50;43.40;;;;;;4959380;28;20047;-82
2023/08/14 11:42:11;;;;;;;6.45;2.20;;;31.40;42.70;;;;;;4967636;28;20057;-83
2023/08/14 11:44:39;;;;;;;36.20;4.18;;;31.30;42.10;;;;;;4948294;28;20051;-83
2023/08/14 11:47:09;;;;;;;135.87;9.30;;;31.20;43.60;;;;;;4955781;28;20042;-83
2023/08/14 11:49:39;;;;;;;8.65;2.65;;;31.50;43.10;;;;;;4951320;28;20512;-83
2023/08/14 11:52:07;;;;;;;9.00;2.33;;;31.60;42.60;;;;;;4950006;28;20098;-84
2023/08/14 11:54:35;;;;;;;6.65;2.33;;;31.80;42.30;;;;;;4954224;28;20134;-84
2023/08/14 11:57:03;;;;;;;7.65;2.50;;;31.90;40.70;;;;;;4966897;28;20058;-83
2023/08/14 11:59:31;;;;;;;11.97;2.60;;;32.00;42.90;;;;;;4949167;28;20070;-83
2023/08/14 12:01:58;;;;;;;5.72;2.50;;;32.10;44.00;;;;;;4948387;29;20142;-83
2023/08/14 12:04:25;;;;;;;9.18;2.75;;;32.10;41.50;;;;;;4951219;28;20568;-84
2023/08/14 12:06:54;;;;;;;9.48;2.42;;;32.10;43.60;;;;;;4948050;28;20411;-83
2023/08/14 12:09:26;;;;;;;7.60;2.53;;;32.10;43.30;;;;;;4950103;28;20082;-84
2023/08/14 12:11:53;;;;;;;6.97;2.40;;;32.10;41.20;;;;;;4969704;28;20525;-83
2023/08/14 12:14:20;;;;;;;5.80;2.67;;;32.00;40.60;;;;;;4959093;28;20035;-84
2023/08/14 12:16:47;;;;;;;5.55;2.30;;;32.10;39.60;;;;;;4975282;28;20130;-83
2023/08/14 12:19:19;;;;;;;6.95;2.45;;;32.10;40.80;;;;;;4957413;28;20046;-83
2023/08/14 12:21:55;;;;;;;6.13;2.55;;;32.20;40.20;;;;;;4964546;28;20043;-83
2023/08/14 12:24:23;;;;;;;5.33;2.63;;;32.10;41.70;;;;;;4969457;28;20559;-83
2023/08/14 12:26:50;;;;;;;6.20;2.40;;;32.10;41.40;;;;;;4968584;28;20043;-83
2023/08/14 12:29:17;;;;;;;7.80;2.58;;;32.00;41.60;;;;;;4975486;28;20047;-83
2023/08/14 12:31:46;;;;;;;7.03;2.60;;;32.00;42.00;;;;;;4959049;28;20053;-83
2023/08/14 12:34:13;;;;;;;8.18;2.53;;;32.00;42.40;;;;;;4951177;28;20511;-83
2023/08/14 12:36:40;;;;;;;8.93;2.63;;;32.00;42.70;;;;;;4965449;28;20054;-83
2023/08/14 12:39:08;;;;;;;7.93;2.45;;;32.10;42.50;;;;;;4953878;28;20468;-83
2023/08/14 12:41:35;;;;;;;6.10;2.80;;;32.20;41.40;;;;;;4956968;28;20054;-83
2023/08/14 12:44:03;;;;;;;6.60;2.60;;;32.20;40.30;;;;;;4972401;28;20047;-84
2023/08/14 12:46:30;;;;;;;5.85;2.42;;;32.30;40.50;;;;;;4954473;28;20047;-83
2023/08/14 12:48:57;;;;;;;7.53;2.40;;;32.20;40.80;;;;;;4964865;28;20046;-83
2023/08/14 12:51:24;;;;;;;9.45;2.70;;;32.10;43.10;;;;;;4954829;28;20046;-83
2023/08/14 12:53:51;;;;;;;7.18;2.60;;;32.20;42.10;;;;;;4957369;28;20125;-84
2023/08/14 12:56:18;;;;;;;8.98;3.20;;;32.10;40.60;;;;;;4957799;28;20058;-83
2023/08/14 12:58:45;;;;;;;7.32;2.88;;;32.10;42.10;;;;;;4949071;28;20094;-83
2023/08/14 13:01:15;;;;;;;6.27;2.30;;;32.20;43.10;;;;;;4955162;28;20043;-83